sensor_id;sensor_type;location;lat;lon;timestamp;P1;durP1;ratioP1;P2;durP2;ratioP2
12675;SDS011;63820;65.654;21.944;2023-08-06T00:00:05;3.70;;;1.80;;
12675;SDS011;63820;65.654;21.944;2023-08-06T00:02:50;3.30;;;1.93;;
12675;SDS011;63820;65.654;21.944;2023-08-06T00:05:34;3.63;;;1.73;;
12675;SDS011;63820;65.654;21.944;2023-08-06T00:08:18;3.13;;;1.97;;
12675;SDS011;63820;65.654;21.944;2023-08-06T00:11:02;3.10;;;2.33;;
12675;SDS011;63820;65.654;21.944;2023-08-06T00:13:46;3.50;;;2.27;;
12675;SDS011;63820;65.654;21.944;2023-08-06T00:16:30;2.33;;;2.00;;
12675;SDS011;63820;65.654;21.944;2023-08-06T00:19:14;4.13;;;2.23;;
12675;SDS011;63820;65.654;21.944;2023-08-06T00:21:58;3.13;;;2.10;;
12675;SDS011;63820;65.654;21.944;2023-08-06T00:24:42;4.73;;;2.30;;
12675;SDS011;63820;65.654;21.944;2023-08-06T00:27:26;2.97;;;1.83;;
12675;SDS011;63820;65.654;21.944;2023-08-06T00:30:10;3.70;;;2.10;;
12675;SDS011;63820;65.654;21.944;2023-08-06T00:32:54;5.57;;;2.60;;
12675;SDS011;63820;65.654;21.944;2023-08-06T00:35:39;3.13;;;2.20;;
12675;SDS011;63820;65.654;21.944;2023-08-06T00:38:23;3.60;;;2.03;;
12675;SDS011;63820;65.654;21.944;2023-08-06T00:41:07;4.07;;;2.37;;
12675;SDS011;63820;65.654;21.944;2023-08-06T00:43:51;5.27;;;2.40;;
12675;SDS011;63820;65.654;21.944;2023-08-06T00:46:35;3.90;;;2.10;;
12675;SDS011;63820;65.654;21.944;2023-08-06T00:49:19;2.83;;;2.13;;
12675;SDS011;63820;65.654;21.944;2023-08-06T00:52:04;3.93;;;2.27;;
12675;SDS011;63820;65.654;21.944;2023-08-06T00:54:50;3.87;;;1.80;;
12675;SDS011;63820;65.654;21.944;2023-08-06T00:57:34;3.87;;;1.90;;
12675;SDS011;63820;65.654;21.944;2023-08-06T01:00:19;4.77;;;2.10;;
12675;SDS011;63820;65.654;21.944;2023-08-06T01:03:04;2.53;;;1.80;;
12675;SDS011;63820;65.654;21.944;2023-08-06T01:05:48;2.83;;;1.90;;
12675;SDS011;63820;65.654;21.944;2023-08-06T01:11:44;2.83;;;1.80;;
12675;SDS011;63820;65.654;21.944;2023-08-06T01:15:04;2.70;;;1.50;;
12675;SDS011;63820;65.654;21.944;2023-08-06T01:17:51;3.03;;;1.47;;
12675;SDS011;63820;65.654;21.944;2023-08-06T01:20:36;3.83;;;1.60;;
12675;SDS011;63820;65.654;21.944;2023-08-06T01:23:20;3.73;;;1.83;;
12675;SDS011;63820;65.654;21.944;2023-08-06T01:32:25;2.90;;;1.90;;
12675;SDS011;63820;65.654;21.944;2023-08-06T01:35:11;3.13;;;1.80;;
12675;SDS011;63820;65.654;21.944;2023-08-06T01:37:59;2.80;;;2.00;;
12675;SDS011;63820;65.654;21.944;2023-08-06T01:40:44;2.60;;;2.10;;
12675;SDS011;63820;65.654;21.944;2023-08-06T01:43:28;3.33;;;1.70;;
12675;SDS011;63820;65.654;21.944;2023-08-06T01:46:12;2.50;;;1.90;;
12675;SDS011;63820;65.654;21.944;2023-08-06T01:48:56;4.33;;;1.70;;
12675;SDS011;63820;65.654;21.944;2023-08-06T01:51:40;2.07;;;1.57;;
12675;SDS011;63820;65.654;21.944;2023-08-06T01:54:24;2.17;;;1.83;;
12675;SDS011;63820;65.654;21.944;2023-08-06T01:57:08;5.07;;;1.77;;
12675;SDS011;63820;65.654;21.944;2023-08-06T01:59:52;3.67;;;1.83;;
12675;SDS011;63820;65.654;21.944;2023-08-06T02:02:36;2.37;;;1.70;;
12675;SDS011;63820;65.654;21.944;2023-08-06T02:05:20;4.07;;;1.70;;
12675;SDS011;63820;65.654;21.944;2023-08-06T02:08:04;2.87;;;1.83;;
12675;SDS011;63820;65.654;21.944;2023-08-06T02:10:48;2.27;;;1.70;;
12675;SDS011;63820;65.654;21.944;2023-08-06T02:13:32;2.10;;;1.47;;
12675;SDS011;63820;65.654;21.944;2023-08-06T02:16:16;3.40;;;1.70;;
12675;SDS011;63820;65.654;21.944;2023-08-06T02:19:00;3.53;;;1.70;;
12675;SDS011;63820;65.654;21.944;2023-08-06T02:21:44;3.10;;;1.73;;
12675;SDS011;63820;65.654;21.944;2023-08-06T02:24:29;3.60;;;1.67;;
12675;SDS011;63820;65.654;21.944;2023-08-06T02:27:13;3.67;;;1.90;;
12675;SDS011;63820;65.654;21.944;2023-08-06T02:29:56;1.83;;;1.50;;
12675;SDS011;63820;65.654;21.944;2023-08-06T02:32:40;3.13;;;1.70;;
12675;SDS011;63820;65.654;21.944;2023-08-06T02:35:24;3.63;;;2.07;;
12675;SDS011;63820;65.654;21.944;2023-08-06T02:38:08;2.00;;;1.80;;
12675;SDS011;63820;65.654;21.944;2023-08-06T02:40:52;2.73;;;1.50;;
12675;SDS011;63820;65.654;21.944;2023-08-06T02:43:36;2.87;;;1.90;;
12675;SDS011;63820;65.654;21.944;2023-08-06T02:46:20;2.13;;;1.80;;
12675;SDS011;63820;65.654;21.944;2023-08-06T02:49:04;2.27;;;1.70;;
12675;SDS011;63820;65.654;21.944;2023-08-06T02:51:50;1.97;;;1.70;;
12675;SDS011;63820;65.654;21.944;2023-08-06T02:54:34;2.33;;;1.90;;
12675;SDS011;63820;65.654;21.944;2023-08-06T02:57:18;4.13;;;2.00;;
12675;SDS011;63820;65.654;21.944;2023-08-06T03:00:02;3.27;;;1.83;;
12675;SDS011;63820;65.654;21.944;2023-08-06T03:02:46;2.30;;;1.80;;
12675;SDS011;63820;65.654;21.944;2023-08-06T03:05:30;3.07;;;1.80;;
12675;SDS011;63820;65.654;21.944;2023-08-06T03:08:14;2.43;;;1.70;;
12675;SDS011;63820;65.654;21.944;2023-08-06T03:10:58;4.90;;;1.90;;
12675;SDS011;63820;65.654;21.944;2023-08-06T03:13:42;2.50;;;1.90;;
12675;SDS011;63820;65.654;21.944;2023-08-06T03:16:26;2.13;;;1.77;;
12675;SDS011;63820;65.654;21.944;2023-08-06T03:19:10;2.13;;;1.70;;
12675;SDS011;63820;65.654;21.944;2023-08-06T03:21:54;3.20;;;1.80;;
12675;SDS011;63820;65.654;21.944;2023-08-06T03:24:38;2.27;;;1.33;;
12675;SDS011;63820;65.654;21.944;2023-08-06T03:27:22;1.87;;;1.57;;
12675;SDS011;63820;65.654;21.944;2023-08-06T03:30:06;3.40;;;1.40;;
12675;SDS011;63820;65.654;21.944;2023-08-06T03:32:51;3.40;;;1.47;;
12675;SDS011;63820;65.654;21.944;2023-08-06T03:35:35;1.97;;;1.50;;
12675;SDS011;63820;65.654;21.944;2023-08-06T03:38:19;1.97;;;1.40;;
12675;SDS011;63820;65.654;21.944;2023-08-06T03:41:03;2.83;;;1.60;;
12675;SDS011;63820;65.654;21.944;2023-08-06T03:43:47;1.33;;;1.23;;
12675;SDS011;63820;65.654;21.944;2023-08-06T03:46:31;1.60;;;1.23;;
12675;SDS011;63820;65.654;21.944;2023-08-06T03:49:18;1.90;;;1.30;;
12675;SDS011;63820;65.654;21.944;2023-08-06T03:52:02;2.60;;;1.10;;
12675;SDS011;63820;65.654;21.944;2023-08-06T03:54:46;1.30;;;1.00;;
12675;SDS011;63820;65.654;21.944;2023-08-06T03:57:30;1.67;;;1.30;;
12675;SDS011;63820;65.654;21.944;2023-08-06T04:00:14;1.20;;;1.10;;
12675;SDS011;63820;65.654;21.944;2023-08-06T04:02:59;1.70;;;1.00;;
12675;SDS011;63820;65.654;21.944;2023-08-06T04:05:43;2.37;;;1.10;;
12675;SDS011;63820;65.654;21.944;2023-08-06T04:08:27;3.67;;;1.30;;
12675;SDS011;63820;65.654;21.944;2023-08-06T04:11:11;3.10;;;1.30;;
12675;SDS011;63820;65.654;21.944;2023-08-06T04:13:56;2.33;;;1.47;;
12675;SDS011;63820;65.654;21.944;2023-08-06T04:16:40;3.60;;;1.40;;
12675;SDS011;63820;65.654;21.944;2023-08-06T04:19:24;1.27;;;1.17;;
12675;SDS011;63820;65.654;21.944;2023-08-06T04:22:08;2.10;;;1.20;;
12675;SDS011;63820;65.654;21.944;2023-08-06T04:24:53;1.90;;;1.07;;
12675;SDS011;63820;65.654;21.944;2023-08-06T04:27:36;1.20;;;1.10;;
12675;SDS011;63820;65.654;21.944;2023-08-06T04:30:25;2.10;;;1.20;;
12675;SDS011;63820;65.654;21.944;2023-08-06T04:33:08;2.93;;;1.50;;
12675;SDS011;63820;65.654;21.944;2023-08-06T04:35:55;1.60;;;1.40;;
12675;SDS011;63820;65.654;21.944;2023-08-06T04:38:40;2.73;;;1.40;;
12675;SDS011;63820;65.654;21.944;2023-08-06T04:41:28;1.50;;;1.40;;
12675;SDS011;63820;65.654;21.944;2023-08-06T04:44:12;1.40;;;1.23;;
12675;SDS011;63820;65.654;21.944;2023-08-06T04:46:56;1.53;;;1.33;;
12675;SDS011;63820;65.654;21.944;2023-08-06T04:49:40;2.23;;;1.20;;
12675;SDS011;63820;65.654;21.944;2023-08-06T04:52:23;1.93;;;1.17;;
12675;SDS011;63820;65.654;21.944;2023-08-06T04:55:11;1.73;;;1.30;;
12675;SDS011;63820;65.654;21.944;2023-08-06T04:57:55;1.57;;;1.40;;
12675;SDS011;63820;65.654;21.944;2023-08-06T05:00:39;2.13;;;1.30;;
12675;SDS011;63820;65.654;21.944;2023-08-06T05:03:23;2.00;;;1.70;;
12675;SDS011;63820;65.654;21.944;2023-08-06T05:06:07;2.10;;;1.67;;
12675;SDS011;63820;65.654;21.944;2023-08-06T05:08:52;1.50;;;1.30;;
12675;SDS011;63820;65.654;21.944;2023-08-06T05:11:36;2.43;;;1.80;;
12675;SDS011;63820;65.654;21.944;2023-08-06T05:14:20;3.70;;;1.50;;
12675;SDS011;63820;65.654;21.944;2023-08-06T05:17:04;1.67;;;1.40;;
12675;SDS011;63820;65.654;21.944;2023-08-06T05:19:48;3.00;;;1.70;;
12675;SDS011;63820;65.654;21.944;2023-08-06T05:22:32;2.00;;;1.40;;
12675;SDS011;63820;65.654;21.944;2023-08-06T05:25:16;2.53;;;1.30;;
12675;SDS011;63820;65.654;21.944;2023-08-06T05:28:00;2.50;;;1.47;;
12675;SDS011;63820;65.654;21.944;2023-08-06T05:30:45;1.93;;;1.30;;
12675;SDS011;63820;65.654;21.944;2023-08-06T05:33:29;1.50;;;1.13;;
12675;SDS011;63820;65.654;21.944;2023-08-06T05:36:13;2.50;;;1.60;;
12675;SDS011;63820;65.654;21.944;2023-08-06T05:38:57;1.30;;;1.20;;
12675;SDS011;63820;65.654;21.944;2023-08-06T05:41:41;2.13;;;1.30;;
12675;SDS011;63820;65.654;21.944;2023-08-06T05:44:25;1.20;;;1.10;;
12675;SDS011;63820;65.654;21.944;2023-08-06T05:47:09;0.97;;;0.93;;
12675;SDS011;63820;65.654;21.944;2023-08-06T05:49:53;1.40;;;1.30;;
12675;SDS011;63820;65.654;21.944;2023-08-06T05:52:37;3.00;;;1.30;;
12675;SDS011;63820;65.654;21.944;2023-08-06T05:55:21;1.38;;;1.20;;
12675;SDS011;63820;65.654;21.944;2023-08-06T05:58:05;1.80;;;1.10;;
12675;SDS011;63820;65.654;21.944;2023-08-06T06:00:49;2.40;;;1.10;;
12675;SDS011;63820;65.654;21.944;2023-08-06T06:03:33;2.17;;;1.05;;
12675;SDS011;63820;65.654;21.944;2023-08-06T06:06:17;1.90;;;1.05;;
12675;SDS011;63820;65.654;21.944;2023-08-06T06:09:02;1.55;;;1.20;;
12675;SDS011;63820;65.654;21.944;2023-08-06T06:11:46;1.10;;;1.00;;
12675;SDS011;63820;65.654;21.944;2023-08-06T06:14:31;1.95;;;1.02;;
12675;SDS011;63820;65.654;21.944;2023-08-06T06:17:16;2.85;;;1.27;;
12675;SDS011;63820;65.654;21.944;2023-08-06T06:20:00;2.38;;;1.08;;
12675;SDS011;63820;65.654;21.944;2023-08-06T06:22:44;1.98;;;1.10;;
12675;SDS011;63820;65.654;21.944;2023-08-06T06:25:28;1.52;;;1.08;;
12675;SDS011;63820;65.654;21.944;2023-08-06T06:28:12;1.13;;;1.05;;
12675;SDS011;63820;65.654;21.944;2023-08-06T06:31:02;1.38;;;1.00;;
12675;SDS011;63820;65.654;21.944;2023-08-06T06:33:47;1.33;;;1.00;;
12675;SDS011;63820;65.654;21.944;2023-08-06T06:36:30;2.25;;;1.20;;
12675;SDS011;63820;65.654;21.944;2023-08-06T06:39:15;1.88;;;1.15;;
12675;SDS011;63820;65.654;21.944;2023-08-06T06:42:00;1.75;;;1.08;;
12675;SDS011;63820;65.654;21.944;2023-08-06T06:44:44;1.92;;;1.20;;
12675;SDS011;63820;65.654;21.944;2023-08-06T06:47:27;3.10;;;1.10;;
12675;SDS011;63820;65.654;21.944;2023-08-06T06:50:12;1.50;;;1.00;;
12675;SDS011;63820;65.654;21.944;2023-08-06T06:52:55;1.10;;;1.00;;
12675;SDS011;63820;65.654;21.944;2023-08-06T06:55:40;2.15;;;1.25;;
12675;SDS011;63820;65.654;21.944;2023-08-06T06:58:23;1.52;;;1.00;;
12675;SDS011;63820;65.654;21.944;2023-08-06T07:01:08;1.95;;;1.10;;
12675;SDS011;63820;65.654;21.944;2023-08-06T07:03:55;1.10;;;1.00;;
12675;SDS011;63820;65.654;21.944;2023-08-06T07:06:38;1.80;;;1.10;;
12675;SDS011;63820;65.654;21.944;2023-08-06T07:09:22;4.32;;;1.10;;
12675;SDS011;63820;65.654;21.944;2023-08-06T07:12:06;3.10;;;1.13;;
12675;SDS011;63820;65.654;21.944;2023-08-06T07:14:51;1.65;;;0.98;;
12675;SDS011;63820;65.654;21.944;2023-08-06T07:17:35;2.35;;;0.90;;
12675;SDS011;63820;65.654;21.944;2023-08-06T07:20:20;1.17;;;1.00;;
12675;SDS011;63820;65.654;21.944;2023-08-06T07:23:04;1.92;;;1.20;;
12675;SDS011;63820;65.654;21.944;2023-08-06T07:25:48;1.65;;;1.20;;
12675;SDS011;63820;65.654;21.944;2023-08-06T07:28:33;4.15;;;1.05;;
12675;SDS011;63820;65.654;21.944;2023-08-06T07:31:17;1.48;;;1.00;;
12675;SDS011;63820;65.654;21.944;2023-08-06T07:34:01;1.05;;;0.90;;
12675;SDS011;63820;65.654;21.944;2023-08-06T07:36:45;1.50;;;1.05;;
12675;SDS011;63820;65.654;21.944;2023-08-06T07:39:30;2.45;;;1.15;;
12675;SDS011;63820;65.654;21.944;2023-08-06T07:42:14;1.08;;;0.90;;
12675;SDS011;63820;65.654;21.944;2023-08-06T07:44:58;2.10;;;1.05;;
12675;SDS011;63820;65.654;21.944;2023-08-06T07:47:42;2.00;;;1.00;;
12675;SDS011;63820;65.654;21.944;2023-08-06T07:50:26;2.78;;;0.93;;
12675;SDS011;63820;65.654;21.944;2023-08-06T07:53:10;1.17;;;0.90;;
12675;SDS011;63820;65.654;21.944;2023-08-06T07:55:54;2.03;;;1.20;;
12675;SDS011;63820;65.654;21.944;2023-08-06T07:58:39;1.30;;;0.93;;
12675;SDS011;63820;65.654;21.944;2023-08-06T08:01:23;0.77;;;0.77;;
12675;SDS011;63820;65.654;21.944;2023-08-06T08:04:07;1.77;;;1.10;;
12675;SDS011;63820;65.654;21.944;2023-08-06T08:06:51;2.35;;;1.13;;
12675;SDS011;63820;65.654;21.944;2023-08-06T08:09:35;0.98;;;0.88;;
12675;SDS011;63820;65.654;21.944;2023-08-06T08:12:19;1.30;;;1.00;;
12675;SDS011;63820;65.654;21.944;2023-08-06T08:15:03;1.48;;;0.95;;
12675;SDS011;63820;65.654;21.944;2023-08-06T08:17:48;2.35;;;1.00;;
12675;SDS011;63820;65.654;21.944;2023-08-06T08:20:32;1.13;;;0.90;;
12675;SDS011;63820;65.654;21.944;2023-08-06T08:23:17;1.15;;;0.85;;
12675;SDS011;63820;65.654;21.944;2023-08-06T08:26:01;1.65;;;0.98;;
12675;SDS011;63820;65.654;21.944;2023-08-06T08:28:45;1.35;;;1.00;;
12675;SDS011;63820;65.654;21.944;2023-08-06T08:31:30;2.15;;;1.13;;
12675;SDS011;63820;65.654;21.944;2023-08-06T08:34:16;1.63;;;0.98;;
12675;SDS011;63820;65.654;21.944;2023-08-06T08:37:00;1.10;;;0.95;;
12675;SDS011;63820;65.654;21.944;2023-08-06T08:39:44;1.45;;;1.05;;
12675;SDS011;63820;65.654;21.944;2023-08-06T08:42:28;1.83;;;1.05;;
12675;SDS011;63820;65.654;21.944;2023-08-06T08:45:13;1.05;;;0.95;;
12675;SDS011;63820;65.654;21.944;2023-08-06T08:47:58;1.80;;;1.15;;
12675;SDS011;63820;65.654;21.944;2023-08-06T08:50:44;1.60;;;0.98;;
12675;SDS011;63820;65.654;21.944;2023-08-06T08:53:29;1.08;;;0.90;;
12675;SDS011;63820;65.654;21.944;2023-08-06T08:56:14;2.08;;;1.00;;
12675;SDS011;63820;65.654;21.944;2023-08-06T08:59:00;1.73;;;0.90;;
12675;SDS011;63820;65.654;21.944;2023-08-06T09:01:44;0.93;;;0.80;;
12675;SDS011;63820;65.654;21.944;2023-08-06T09:04:35;1.63;;;1.10;;
12675;SDS011;63820;65.654;21.944;2023-08-06T09:07:20;1.80;;;0.80;;
12675;SDS011;63820;65.654;21.944;2023-08-06T09:10:07;1.17;;;0.80;;
12675;SDS011;63820;65.654;21.944;2023-08-06T09:12:55;2.00;;;1.00;;
12675;SDS011;63820;65.654;21.944;2023-08-06T09:15:40;1.00;;;0.75;;
12675;SDS011;63820;65.654;21.944;2023-08-06T09:18:25;0.95;;;0.70;;
12675;SDS011;63820;65.654;21.944;2023-08-06T09:21:13;1.67;;;0.93;;
12675;SDS011;63820;65.654;21.944;2023-08-06T09:24:00;0.70;;;0.70;;
12675;SDS011;63820;65.654;21.944;2023-08-06T09:26:44;0.85;;;0.77;;
12675;SDS011;63820;65.654;21.944;2023-08-06T09:29:29;0.70;;;0.70;;
12675;SDS011;63820;65.654;21.944;2023-08-06T09:32:14;0.90;;;0.90;;
12675;SDS011;63820;65.654;21.944;2023-08-06T09:34:59;0.98;;;0.70;;
12675;SDS011;63820;65.654;21.944;2023-08-06T09:37:44;1.58;;;0.80;;
12675;SDS011;63820;65.654;21.944;2023-08-06T09:40:30;1.42;;;0.90;;
12675;SDS011;63820;65.654;21.944;2023-08-06T09:43:18;4.72;;;4.28;;
12675;SDS011;63820;65.654;21.944;2023-08-06T09:46:10;0.90;;;0.80;;
12675;SDS011;63820;65.654;21.944;2023-08-06T09:48:55;1.10;;;0.77;;
12675;SDS011;63820;65.654;21.944;2023-08-06T09:51:39;0.75;;;0.75;;
12675;SDS011;63820;65.654;21.944;2023-08-06T09:54:24;1.52;;;0.80;;
12675;SDS011;63820;65.654;21.944;2023-08-06T09:57:11;1.00;;;0.90;;
12675;SDS011;63820;65.654;21.944;2023-08-06T09:59:56;1.10;;;0.95;;
12675;SDS011;63820;65.654;21.944;2023-08-06T10:02:40;0.90;;;0.90;;
12675;SDS011;63820;65.654;21.944;2023-08-06T10:05:24;1.05;;;0.70;;
12675;SDS011;63820;65.654;21.944;2023-08-06T10:08:09;1.10;;;0.80;;
12675;SDS011;63820;65.654;21.944;2023-08-06T10:10:53;1.67;;;0.73;;
12675;SDS011;63820;65.654;21.944;2023-08-06T10:13:37;1.08;;;0.90;;
12675;SDS011;63820;65.654;21.944;2023-08-06T10:16:23;1.17;;;0.80;;
12675;SDS011;63820;65.654;21.944;2023-08-06T10:19:11;1.10;;;1.00;;
12675;SDS011;63820;65.654;21.944;2023-08-06T10:24:58;0.90;;;0.80;;
12675;SDS011;63820;65.654;21.944;2023-08-06T10:30:32;1.45;;;0.80;;
12675;SDS011;63820;65.654;21.944;2023-08-06T10:33:18;0.80;;;0.80;;
12675;SDS011;63820;65.654;21.944;2023-08-06T10:36:04;2.35;;;1.02;;
12675;SDS011;63820;65.654;21.944;2023-08-06T10:38:53;1.05;;;0.90;;
12675;SDS011;63820;65.654;21.944;2023-08-06T10:41:44;1.77;;;0.82;;
12675;SDS011;63820;65.654;21.944;2023-08-06T10:44:28;1.00;;;0.90;;
12675;SDS011;63820;65.654;21.944;2023-08-06T10:47:25;1.10;;;0.70;;
12675;SDS011;63820;65.654;21.944;2023-08-06T10:50:14;0.70;;;0.60;;
12675;SDS011;63820;65.654;21.944;2023-08-06T10:53:03;0.95;;;0.70;;
12675;SDS011;63820;65.654;21.944;2023-08-06T10:55:49;0.95;;;0.55;;
12675;SDS011;63820;65.654;21.944;2023-08-06T10:58:33;0.70;;;0.68;;
12675;SDS011;63820;65.654;21.944;2023-08-06T11:01:17;0.60;;;0.60;;
12675;SDS011;63820;65.654;21.944;2023-08-06T11:04:02;0.95;;;0.85;;
12675;SDS011;63820;65.654;21.944;2023-08-06T11:06:51;0.82;;;0.82;;
12675;SDS011;63820;65.654;21.944;2023-08-06T11:09:37;0.60;;;0.60;;
12675;SDS011;63820;65.654;21.944;2023-08-06T11:12:21;1.45;;;0.82;;
12675;SDS011;63820;65.654;21.944;2023-08-06T11:15:06;0.93;;;0.60;;
12675;SDS011;63820;65.654;21.944;2023-08-06T11:17:50;1.25;;;0.85;;
12675;SDS011;63820;65.654;21.944;2023-08-06T11:20:35;0.90;;;0.70;;
12675;SDS011;63820;65.654;21.944;2023-08-06T11:23:20;0.95;;;0.70;;
12675;SDS011;63820;65.654;21.944;2023-08-06T11:26:07;1.33;;;0.70;;
12675;SDS011;63820;65.654;21.944;2023-08-06T11:28:51;0.80;;;0.75;;
12675;SDS011;63820;65.654;21.944;2023-08-06T11:31:36;0.60;;;0.60;;
12675;SDS011;63820;65.654;21.944;2023-08-06T11:34:20;0.70;;;0.70;;
12675;SDS011;63820;65.654;21.944;2023-08-06T11:37:05;1.00;;;0.90;;
12675;SDS011;63820;65.654;21.944;2023-08-06T11:39:49;0.70;;;0.70;;
12675;SDS011;63820;65.654;21.944;2023-08-06T11:42:35;1.45;;;0.75;;
12675;SDS011;63820;65.654;21.944;2023-08-06T11:45:24;0.70;;;0.65;;
12675;SDS011;63820;65.654;21.944;2023-08-06T11:48:09;0.70;;;0.70;;
12675;SDS011;63820;65.654;21.944;2023-08-06T11:50:54;0.80;;;0.80;;
12675;SDS011;63820;65.654;21.944;2023-08-06T11:53:38;0.90;;;0.65;;
12675;SDS011;63820;65.654;21.944;2023-08-06T11:56:22;2.15;;;0.80;;
12675;SDS011;63820;65.654;21.944;2023-08-06T11:59:06;0.80;;;0.80;;
12675;SDS011;63820;65.654;21.944;2023-08-06T12:01:52;1.00;;;0.80;;
12675;SDS011;63820;65.654;21.944;2023-08-06T12:07:48;0.80;;;0.80;;
12675;SDS011;63820;65.654;21.944;2023-08-06T12:10:37;1.10;;;1.00;;
12675;SDS011;63820;65.654;21.944;2023-08-06T12:13:21;2.00;;;0.98;;
12675;SDS011;63820;65.654;21.944;2023-08-06T12:16:05;1.77;;;1.02;;
12675;SDS011;63820;65.654;21.944;2023-08-06T12:18:49;0.77;;;0.77;;
12675;SDS011;63820;65.654;21.944;2023-08-06T12:21:33;1.17;;;1.00;;
12675;SDS011;63820;65.654;21.944;2023-08-06T12:24:17;0.93;;;0.88;;
12675;SDS011;63820;65.654;21.944;2023-08-06T12:27:01;1.00;;;0.90;;
12675;SDS011;63820;65.654;21.944;2023-08-06T12:29:47;0.82;;;0.82;;
12675;SDS011;63820;65.654;21.944;2023-08-06T12:32:32;1.15;;;0.70;;
12675;SDS011;63820;65.654;21.944;2023-08-06T12:35:17;1.45;;;1.00;;
12675;SDS011;63820;65.654;21.944;2023-08-06T12:38:01;1.08;;;0.80;;
12675;SDS011;63820;65.654;21.944;2023-08-06T12:40:45;1.23;;;1.13;;
12675;SDS011;63820;65.654;21.944;2023-08-06T12:43:30;1.25;;;0.80;;
12675;SDS011;63820;65.654;21.944;2023-08-06T12:46:13;0.90;;;0.70;;
12675;SDS011;63820;65.654;21.944;2023-08-06T12:48:57;1.00;;;0.90;;
12675;SDS011;63820;65.654;21.944;2023-08-06T12:51:41;1.15;;;0.98;;
12675;SDS011;63820;65.654;21.944;2023-08-06T12:54:25;0.95;;;0.93;;
12675;SDS011;63820;65.654;21.944;2023-08-06T12:57:11;0.60;;;0.60;;
12675;SDS011;63820;65.654;21.944;2023-08-06T12:59:55;1.00;;;0.82;;
12675;SDS011;63820;65.654;21.944;2023-08-06T13:02:39;0.77;;;0.77;;
12675;SDS011;63820;65.654;21.944;2023-08-06T13:05:23;1.30;;;0.82;;
12675;SDS011;63820;65.654;21.944;2023-08-06T13:08:07;1.00;;;0.90;;
12675;SDS011;63820;65.654;21.944;2023-08-06T13:10:51;1.38;;;0.90;;
12675;SDS011;63820;65.654;21.944;2023-08-06T13:13:35;0.80;;;0.80;;
12675;SDS011;63820;65.654;21.944;2023-08-06T13:16:19;1.08;;;0.90;;
12675;SDS011;63820;65.654;21.944;2023-08-06T13:19:03;0.80;;;0.80;;
12675;SDS011;63820;65.654;21.944;2023-08-06T13:24:36;1.20;;;0.90;;
12675;SDS011;63820;65.654;21.944;2023-08-06T13:27:20;1.00;;;0.90;;
12675;SDS011;63820;65.654;21.944;2023-08-06T13:30:04;0.93;;;0.80;;
12675;SDS011;63820;65.654;21.944;2023-08-06T13:32:49;0.85;;;0.80;;
12675;SDS011;63820;65.654;21.944;2023-08-06T13:35:33;1.40;;;0.90;;
12675;SDS011;63820;65.654;21.944;2023-08-06T13:38:17;1.95;;;0.88;;
12675;SDS011;63820;65.654;21.944;2023-08-06T13:41:01;2.17;;;0.90;;
12675;SDS011;63820;65.654;21.944;2023-08-06T13:43:45;1.02;;;0.80;;
12675;SDS011;63820;65.654;21.944;2023-08-06T13:46:30;0.70;;;0.70;;
12675;SDS011;63820;65.654;21.944;2023-08-06T13:49:14;1.13;;;0.95;;
12675;SDS011;63820;65.654;21.944;2023-08-06T13:51:58;1.08;;;0.80;;
12675;SDS011;63820;65.654;21.944;2023-08-06T13:54:42;1.42;;;0.70;;
12675;SDS011;63820;65.654;21.944;2023-08-06T13:57:26;1.00;;;0.85;;
12675;SDS011;63820;65.654;21.944;2023-08-06T14:00:10;0.88;;;0.88;;
12675;SDS011;63820;65.654;21.944;2023-08-06T14:02:54;0.80;;;0.73;;
12675;SDS011;63820;65.654;21.944;2023-08-06T14:05:38;0.98;;;0.90;;
12675;SDS011;63820;65.654;21.944;2023-08-06T14:08:22;1.13;;;1.00;;
12675;SDS011;63820;65.654;21.944;2023-08-06T14:11:07;1.80;;;0.95;;
12675;SDS011;63820;65.654;21.944;2023-08-06T14:13:51;1.10;;;0.85;;
12675;SDS011;63820;65.654;21.944;2023-08-06T14:16:35;0.93;;;0.82;;
12675;SDS011;63820;65.654;21.944;2023-08-06T14:19:19;0.90;;;0.90;;
12675;SDS011;63820;65.654;21.944;2023-08-06T14:22:03;1.15;;;1.00;;
12675;SDS011;63820;65.654;21.944;2023-08-06T14:24:47;1.73;;;0.98;;
12675;SDS011;63820;65.654;21.944;2023-08-06T14:27:31;0.85;;;0.77;;
12675;SDS011;63820;65.654;21.944;2023-08-06T14:30:16;0.90;;;0.90;;
12675;SDS011;63820;65.654;21.944;2023-08-06T14:32:59;0.70;;;0.70;;
12675;SDS011;63820;65.654;21.944;2023-08-06T14:35:47;1.10;;;0.95;;
12675;SDS011;63820;65.654;21.944;2023-08-06T14:38:30;1.00;;;0.90;;
12675;SDS011;63820;65.654;21.944;2023-08-06T14:41:15;1.08;;;0.98;;
12675;SDS011;63820;65.654;21.944;2023-08-06T14:43:59;1.08;;;0.90;;
12675;SDS011;63820;65.654;21.944;2023-08-06T14:46:43;1.17;;;0.90;;
12675;SDS011;63820;65.654;21.944;2023-08-06T14:49:27;1.48;;;0.77;;
12675;SDS011;63820;65.654;21.944;2023-08-06T14:52:11;1.15;;;0.80;;
12675;SDS011;63820;65.654;21.944;2023-08-06T14:54:55;1.00;;;0.90;;
12675;SDS011;63820;65.654;21.944;2023-08-06T14:57:39;1.30;;;0.80;;
12675;SDS011;63820;65.654;21.944;2023-08-06T15:00:23;1.55;;;0.80;;
12675;SDS011;63820;65.654;21.944;2023-08-06T15:03:07;1.40;;;0.80;;
12675;SDS011;63820;65.654;21.944;2023-08-06T15:05:51;2.60;;;1.00;;
12675;SDS011;63820;65.654;21.944;2023-08-06T15:08:35;0.90;;;0.80;;
12675;SDS011;63820;65.654;21.944;2023-08-06T15:11:20;1.00;;;0.90;;
12675;SDS011;63820;65.654;21.944;2023-08-06T15:14:05;1.15;;;0.93;;
12675;SDS011;63820;65.654;21.944;2023-08-06T15:16:51;1.00;;;0.90;;
12675;SDS011;63820;65.654;21.944;2023-08-06T15:19:35;1.35;;;1.02;;
12675;SDS011;63820;65.654;21.944;2023-08-06T15:22:19;1.20;;;1.05;;
12675;SDS011;63820;65.654;21.944;2023-08-06T15:25:03;1.00;;;0.90;;
12675;SDS011;63820;65.654;21.944;2023-08-06T15:27:48;1.10;;;1.00;;
12675;SDS011;63820;65.654;21.944;2023-08-06T15:30:32;1.23;;;1.00;;
12675;SDS011;63820;65.654;21.944;2023-08-06T15:33:20;1.30;;;1.00;;
12675;SDS011;63820;65.654;21.944;2023-08-06T15:36:04;0.85;;;0.80;;
12675;SDS011;63820;65.654;21.944;2023-08-06T15:38:49;0.80;;;0.73;;
12675;SDS011;63820;65.654;21.944;2023-08-06T15:41:33;1.00;;;0.82;;
12675;SDS011;63820;65.654;21.944;2023-08-06T15:44:17;0.65;;;0.65;;
12675;SDS011;63820;65.654;21.944;2023-08-06T15:47:01;1.30;;;0.93;;
12675;SDS011;63820;65.654;21.944;2023-08-06T15:49:46;1.05;;;0.80;;
12675;SDS011;63820;65.654;21.944;2023-08-06T15:52:30;0.85;;;0.70;;
12675;SDS011;63820;65.654;21.944;2023-08-06T15:55:14;1.38;;;1.00;;
12675;SDS011;63820;65.654;21.944;2023-08-06T15:57:59;0.95;;;0.85;;
12675;SDS011;63820;65.654;21.944;2023-08-06T16:00:43;1.23;;;0.70;;
12675;SDS011;63820;65.654;21.944;2023-08-06T16:03:28;1.27;;;0.82;;
12675;SDS011;63820;65.654;21.944;2023-08-06T16:06:13;1.75;;;0.90;;
12675;SDS011;63820;65.654;21.944;2023-08-06T16:08:56;1.65;;;0.80;;
12675;SDS011;63820;65.654;21.944;2023-08-06T16:11:41;1.08;;;0.90;;
12675;SDS011;63820;65.654;21.944;2023-08-06T16:14:25;1.92;;;1.00;;
12675;SDS011;63820;65.654;21.944;2023-08-06T16:17:09;1.00;;;0.80;;
12675;SDS011;63820;65.654;21.944;2023-08-06T16:19:53;0.90;;;0.90;;
12675;SDS011;63820;65.654;21.944;2023-08-06T16:22:37;1.20;;;0.93;;
12675;SDS011;63820;65.654;21.944;2023-08-06T16:25:21;1.13;;;0.90;;
12675;SDS011;63820;65.654;21.944;2023-08-06T16:28:05;1.15;;;0.80;;
12675;SDS011;63820;65.654;21.944;2023-08-06T16:30:49;1.00;;;0.90;;
12675;SDS011;63820;65.654;21.944;2023-08-06T16:33:32;1.45;;;0.90;;
12675;SDS011;63820;65.654;21.944;2023-08-06T16:36:16;1.00;;;0.90;;